Time;durP1;ratioP1;P1;durP2;ratioP2;P2;SDS_P1;SDS_P2;PMS_P1;PMS_P2;Temp;Humidity;BMP_temperature;BMP_pressure;BME280_temperature;BME280_humidity;BME280_pressure;Samples;Min_cycle;Max_cycle;Signal;HPM_P1;HPM_P2
2021/04/27 00:00:28;;;;;;;;;;;;;;;8.70;100.00;98682.47;5031303;28;20404;-80
2021/04/27 00:02:54;;;;;;;;;;;;;;;8.97;100.00;98674.91;5032452;28;19929;-79
2021/04/27 00:05:21;;;;;;;;;;;;;;;8.85;100.00;98669.91;5031544;28;19972;-79
2021/04/27 00:07:48;;;;;;;;;;;;;;;8.98;100.00;98673.69;5032903;28;19925;-79
2021/04/27 00:10:15;;;;;;;;;;;;;;;8.88;100.00;98663.50;5032888;28;20627;-79
2021/04/27 00:12:42;;;;;;;;;;;;;;;8.89;100.00;98667.84;5065165;28;20257;-79
2021/04/27 00:15:11;;;;;;;;;;;;;;;8.83;100.00;98660.41;5065098;28;19931;-79
2021/04/27 00:17:37;;;;;;;;;;;;;;;8.70;100.00;98657.41;5032716;28;20394;-79
2021/04/27 00:20:05;;;;;;;;;;;;;;;8.67;100.00;98661.03;5033259;28;19937;-79
2021/04/27 00:22:31;;;;;;;;;;;;;;;8.61;100.00;98650.78;5052106;28;19925;-79
2021/04/27 00:24:58;;;;;;;;;;;;;;;8.58;100.00;98646.06;5036335;28;20337;-79
2021/04/27 00:27:25;;;;;;;;;;;;;;;8.45;100.00;98648.63;5036497;28;19929;-79
2021/04/27 00:29:52;;;;;;;;;;;;;;;8.44;100.00;98641.47;5035177;28;20059;-79
2021/04/27 00:32:19;;;;;;;;;;;;;;;8.46;100.00;98644.66;5036412;28;19925;-79
2021/04/27 00:34:45;;;;;;;;;;;;;;;8.48;100.00;98636.63;5036228;28;19936;-79
2021/04/27 00:37:13;;;;;;;;;;;;;;;8.51;100.00;98638.56;5036319;28;19925;-79
2021/04/27 00:39:39;;;;;;;;;;;;;;;8.52;100.00;98637.41;5036092;28;20100;-79
2021/04/27 00:42:06;;;;;;;;;;;;;;;8.50;100.00;98637.00;5036088;28;20032;-79
2021/04/27 00:44:32;;;;;;;;;;;;;;;8.45;100.00;98634.69;5031411;28;19932;-78
2021/04/27 00:46:59;;;;;;;;;;;;;;;8.44;100.00;98633.13;5066955;28;19925;-79
2021/04/27 00:49:26;;;;;;;;;;;;;;;8.43;100.00;98628.78;5035643;28;19948;-79
2021/04/27 00:51:53;;;;;;;;;;;;;;;8.43;100.00;98623.22;5036048;28;19932;-79
2021/04/27 00:54:19;;;;;;;;;;;;;;;8.44;100.00;98616.41;5051057;28;19925;-79
2021/04/27 00:56:46;;;;;;;;;;;;;;;8.41;100.00;98608.91;5036139;28;20342;-79
2021/04/27 00:59:13;;;;;;;;;;;;;;;8.49;100.00;98604.81;5032415;28;19925;-79
2021/04/27 01:01:40;;;;;;;;;;;;;;;8.50;100.00;98606.38;5024340;28;19925;-79
2021/04/27 01:04:07;;;;;;;;;;;;;;;8.54;100.00;98604.31;5034531;28;19925;-79
2021/04/27 01:06:34;;;;;;;;;;;;;;;8.45;100.00;98598.50;5035651;28;20027;-79
2021/04/27 01:09:09;;;;;;;;;;;;;;;8.41;100.00;98599.75;5067611;28;19926;-79
2021/04/27 01:11:50;;;;;;;;;;;;;;;8.55;100.00;98594.78;5040354;28;20274;-79
2021/04/27 01:14:23;;;;;;;;;;;;;;;8.67;100.00;98599.75;5075542;28;19924;-79
2021/04/27 01:16:54;;;;;;;;;;;;;;;8.51;100.00;98590.47;5075401;28;20707;-79
2021/04/27 01:19:34;;;;;;;;;;;;;;;8.40;100.00;98587.84;5057675;28;19924;-79
2021/04/27 01:22:01;;;;;;;;;;;;;;;8.23;100.00;98586.09;5048804;28;19983;-80
2021/04/27 01:24:33;;;;;;;;;;;;;;;8.09;100.00;98580.69;5074855;28;20027;-79
2021/04/27 01:27:01;;;;;;;;;;;;;;;8.17;100.00;98584.97;5075041;28;20381;-80
2021/04/27 01:29:29;;;;;;;;;;;;;;;8.23;100.00;98574.97;5057197;28;20386;-80
2021/04/27 01:31:58;;;;;;;;;;;;;;;8.57;100.00;98572.84;5075040;28;20013;-80
2021/04/27 01:34:27;;;;;;;;;;;;;;;8.61;100.00;98568.03;5074962;28;19932;-80
2021/04/27 01:36:54;;;;;;;;;;;;;;;8.43;100.00;98566.72;5074564;28;20394;-80
2021/04/27 01:39:25;;;;;;;;;;;;;;;8.31;100.00;98570.09;5057033;28;19925;-80
2021/04/27 01:41:52;;;;;;;;;;;;;;;8.49;100.00;98553.91;5074973;28;19956;-80
2021/04/27 01:44:19;;;;;;;;;;;;;;;8.33;100.00;98557.31;5074864;28;19932;-80
2021/04/27 01:46:46;;;;;;;;;;;;;;;8.21;100.00;98560.66;5073370;28;19925;-80
2021/04/27 01:49:14;;;;;;;;;;;;;;;8.32;100.00;98561.31;5056972;28;20434;-80
2021/04/27 01:52:01;;;;;;;;;;;;;;;8.68;100.00;98555.97;5087218;28;19924;-80
2021/04/27 01:54:50;;;;;;;;;;;;;;;8.63;100.00;98562.81;5056966;28;19924;-80
2021/04/27 01:57:18;;;;;;;;;;;;;;;8.45;100.00;98556.72;5090020;28;20389;-80
2021/04/27 01:59:45;;;;;;;;;;;;;;;8.42;100.00;98554.78;5056824;28;20477;-80
2021/04/27 02:02:18;;;;;;;;;;;;;;;8.27;100.00;98549.88;5090027;28;20390;-79
2021/04/27 02:04:57;;;;;;;;;;;;;;;8.15;100.00;98556.78;5090089;28;19928;-79
2021/04/27 02:07:46;;;;;;;;;;;;;;;8.13;100.00;98548.06;5074483;28;20478;-80
2021/04/27 02:10:14;;;;;;;;;;;;;;;8.10;100.00;98543.34;5090001;28;19995;-80
2021/04/27 02:12:43;;;;;;;;;;;;;;;8.09;100.00;98544.53;5073982;28;19931;-79
2021/04/27 02:15:11;;;;;;;;;;;;;;;8.03;100.00;98542.63;5053158;28;19978;-79
2021/04/27 02:17:40;;;;;;;;;;;;;;;7.89;100.00;98540.84;5072412;28;20323;-79
2021/04/27 02:20:22;;;;;;;;;;;;;;;7.77;100.00;98537.84;5088250;28;19929;-79
2021/04/27 02:23:20;;;;;;;;;;;;;;;7.76;100.00;98528.72;5063293;28;19925;-79
2021/04/27 02:25:54;;;;;;;;;;;;;;;7.80;100.00;98521.09;5089578;28;20309;-80
2021/04/27 02:28:24;;;;;;;;;;;;;;;7.85;100.00;98526.19;5106384;28;19924;-80
2021/04/27 02:30:51;;;;;;;;;;;;;;;7.82;100.00;98515.91;5073906;28;20013;-79
2021/04/27 02:33:18;;;;;;;;;;;;;;;7.78;100.00;98509.63;5073835;28;19947;-80
2021/04/27 02:35:45;;;;;;;;;;;;;;;7.73;100.00;98507.28;5073670;28;20322;-79
2021/04/27 02:38:20;;;;;;;;;;;;;;;7.71;100.00;98509.69;5055873;28;20031;-79
2021/04/27 02:40:53;;;;;;;;;;;;;;;7.71;100.00;98498.56;5073747;28;19931;-78
2021/04/27 02:43:21;;;;;;;;;;;;;;;7.66;100.00;98496.28;5055478;28;19956;-79
2021/04/27 02:45:48;;;;;;;;;;;;;;;7.69;100.00;98501.00;5055810;28;19924;-79
2021/04/27 02:48:31;;;;;;;;;;;;;;;7.67;100.00;98497.84;5073480;28;20019;-79
2021/04/27 02:51:09;;;;;;;;;;;;;;;7.60;100.00;98492.38;5073687;28;20500;-79
2021/04/27 02:53:58;;;;;;;;;;;;;;;7.58;100.00;98489.22;5065355;28;20023;-79
2021/04/27 02:56:26;;;;;;;;;;;;;;;7.50;100.00;98478.63;5089119;28;19970;-79
2021/04/27 02:58:53;;;;;;;;;;;;;;;7.49;100.00;98475.06;5073513;28;20314;-79
2021/04/27 03:01:20;;;;;;;;;;;;;;;7.49;100.00;98475.06;5073716;28;20019;-79
2021/04/27 03:03:47;;;;;;;;;;;;;;;7.52;100.00;98474.22;5055176;28;19960;-78
2021/04/27 03:06:15;;;;;;;;;;;;;;;7.52;100.00;98465.88;5089044;28;20022;-79
2021/04/27 03:09:07;;;;;;;;;;;;;;;7.56;100.00;98468.63;5069450;28;20009;-79
2021/04/27 03:11:37;;;;;;;;;;;;;;;7.57;100.00;98457.09;5088965;28;19932;-79
2021/04/27 03:14:04;;;;;;;;;;;;;;;7.61;100.00;98460.59;5088974;28;19947;-79
2021/04/27 03:16:33;;;;;;;;;;;;;;;7.59;100.00;98463.00;5073415;28;19951;-79
2021/04/27 03:19:00;;;;;;;;;;;;;;;7.61;100.00;98454.22;5088835;28;19925;-79
2021/04/27 03:21:30;;;;;;;;;;;;;;;7.64;100.00;98456.97;5055473;28;20386;-79
2021/04/27 03:23:57;;;;;;;;;;;;;;;7.61;100.00;98454.22;5088926;28;19925;-79
2021/04/27 03:26:23;;;;;;;;;;;;;;;7.66;100.00;98446.22;5055304;28;19970;-79
2021/04/27 03:29:08;;;;;;;;;;;;;;;7.57;100.00;98451.53;5073332;28;20009;-79
2021/04/27 03:31:42;;;;;;;;;;;;;;;7.63;100.00;98446.28;5055232;28;19924;-79
2021/04/27 03:34:09;;;;;;;;;;;;;;;7.62;100.00;98434.34;5073214;28;20019;-79
2021/04/27 03:36:36;;;;;;;;;;;;;;;7.64;100.00;98428.38;5071748;28;19928;-79
2021/04/27 03:39:03;;;;;;;;;;;;;;;7.59;100.00;98426.84;5088910;28;19932;-79
2021/04/27 03:41:30;;;;;;;;;;;;;;;7.67;100.00;98425.56;5088502;28;19928;-79
2021/04/27 03:43:57;;;;;;;;;;;;;;;7.74;100.00;98431.00;5088714;28;20356;-79
2021/04/27 03:46:23;;;;;;;;;;;;;;;7.70;100.00;98418.34;5088351;28;19931;-79
2021/04/27 03:48:50;;;;;;;;;;;;;;;7.79;100.00;98422.19;5088851;28;20019;-79
2021/04/27 03:51:19;;;;;;;;;;;;;;;7.81;100.00;98410.66;5055239;28;19970;-79
2021/04/27 03:53:57;;;;;;;;;;;;;;;7.80;100.00;98415.41;5088698;28;20009;-79
2021/04/27 03:56:29;;;;;;;;;;;;;;;7.75;100.00;98415.91;5058867;28;20009;-79
2021/04/27 03:58:57;;;;;;;;;;;;;;;7.83;100.00;98414.56;5076920;28;19931;-79
2021/04/27 04:01:25;;;;;;;;;;;;;;;7.82;100.00;98409.44;5042575;28;19936;-79
2021/04/27 04:03:53;;;;;;;;;;;;;;;7.84;100.00;98405.03;5076824;28;19924;-79
2021/04/27 04:06:20;;;;;;;;;;;;;;;7.86;100.00;98404.63;5076822;28;19975;-79
2021/04/27 04:08:53;;;;;;;;;;;;;;;7.80;100.00;98411.88;5076524;28;20013;-79
2021/04/27 04:11:22;;;;;;;;;;;;;;;7.71;100.00;98408.81;5076358;28;20015;-79
2021/04/27 04:13:49;;;;;;;;;;;;;;;7.82;100.00;98409.44;5075766;28;19924;-79
2021/04/27 04:16:16;;;;;;;;;;;;;;;7.91;100.00;98404.13;5038662;28;19931;-79
2021/04/27 04:18:44;;;;;;;;;;;;;;;7.86;100.00;98393.50;5071745;28;19966;-79
2021/04/27 04:21:10;;;;;;;;;;;;;;;7.87;100.00;98395.84;5076390;28;20058;-79
2021/04/27 04:23:51;;;;;;;;;;;;;;;7.84;100.00;98391.13;5075055;28;19932;-79
2021/04/27 04:26:18;;;;;;;;;;;;;;;7.76;100.00;98389.66;5058472;28;19955;-79
2021/04/27 04:29:01;;;;;;;;;;;;;;;7.82;100.00;98387.97;5076336;28;20026;-79
2021/04/27 04:31:27;;;;;;;;;;;;;;;7.84;100.00;98393.91;5091776;28;19925;-79
2021/04/27 04:34:29;;;;;;;;;;;;;;;7.85;100.00;98395.47;5014119;28;19969;-79
2021/04/27 04:37:14;;;;;;;;;;;;;;;7.88;100.00;98389.06;5014153;28;19971;-78
2021/04/27 04:39:59;;;;;;;;;;;;;;;7.84;100.00;98396.69;5014204;28;20372;-79
2021/04/27 04:42:44;;;;;;;;;;;;;;;7.77;100.00;98396.78;5014102;28;20273;-79
2021/04/27 04:45:48;;;;;;;;;;;;;;;7.70;100.00;98396.09;4936514;29;19997;-79
2021/04/27 04:48:33;;;;;;;;;;;;;;;7.68;100.00;98399.31;4936517;29;19931;-79
2021/04/27 04:51:10;;;;;;;;;;;;;;;7.74;100.00;98396.88;4920875;29;19931;-79
2021/04/27 04:53:58;;;;;;;;;;;;;;;7.70;100.00;98396.09;4926828;29;19950;-79
2021/04/27 04:56:25;;;;;;;;;;;;;;;7.75;100.00;98393.66;4904379;29;19927;-79
2021/04/27 04:58:53;;;;;;;;;;;;;;;7.77;100.00;98387.69;4920753;29;19927;-79
2021/04/27 05:01:20;;;;;;;;;;;;;;;7.78;100.00;98386.47;4936219;29;19927;-79
2021/04/27 05:04:06;;;;;;;;;;;;;;;7.74;100.00;98397.63;4936169;29;20162;-79
2021/04/27 05:06:58;;;;;;;;;;;;;;;7.75;100.00;98393.66;4907228;29;19995;-79
2021/04/27 05:09:43;;;;;;;;;;;;;;;7.76;100.00;98383.31;4955386;28;19938;-79
2021/04/27 05:12:21;;;;;;;;;;;;;;;7.80;100.00;98373.69;4955258;28;20000;-79
2021/04/27 05:14:54;;;;;;;;;;;;;;;7.86;100.00;98372.00;4955100;29;19926;-79
2021/04/27 05:17:22;;;;;;;;;;;;;;;7.86;100.00;98376.81;5057581;28;20368;-79
2021/04/27 05:19:48;;;;;;;;;;;;;;;7.83;100.00;98372.09;5091192;28;19925;-79
2021/04/27 05:22:18;;;;;;;;;;;;;;;7.86;100.00;98366.44;5090878;28;19928;-79
2021/04/27 05:24:45;;;;;;;;;;;;;;;7.87;100.00;98358.91;5075601;28;19947;-81
2021/04/27 05:27:15;;;;;;;;;;;;;;;7.83;100.00;98356.16;5090947;28;19987;-80
2021/04/27 05:29:42;;;;;;;;;;;;;;;7.79;100.00;98361.00;5075239;28;19924;-80
2021/04/27 05:32:08;;;;;;;;;;;;;;;7.80;100.00;98356.25;5075075;28;19931;-80
2021/04/27 05:34:35;;;;;;;;;;;;;;;7.91;100.00;98352.06;5074110;28;19939;-80
2021/04/27 05:37:02;;;;;;;;;;;;;;;7.93;100.00;98355.22;5074278;28;19928;-80
2021/04/27 05:39:29;;;;;;;;;;;;;;;7.89;100.00;98354.47;5056575;28;19928;-80
2021/04/27 05:41:55;;;;;;;;;;;;;;;7.88;100.00;98352.13;5074611;28;19925;-78
2021/04/27 05:44:22;;;;;;;;;;;;;;;7.85;100.00;98352.97;5072727;28;19924;-78
2021/04/27 05:46:48;;;;;;;;;;;;;;;7.80;100.00;98351.44;5056252;28;19962;-78
2021/04/27 05:49:15;;;;;;;;;;;;;;;7.74;100.00;98355.91;5056738;28;19936;-78
2021/04/27 05:51:41;;;;;;;;;;;;;;;7.75;100.00;98349.16;5090223;28;20394;-77
2021/04/27 05:54:08;;;;;;;;;;;;;;;7.86;100.00;98355.31;5074564;28;19970;-76
2021/04/27 05:56:34;;;;;;;;;;;;;;;7.84;100.00;98351.41;5055610;28;19997;-77
2021/04/27 05:59:01;;;;;;;;;;;;;;;7.95;100.00;98347.22;5052432;28;19929;-77
2021/04/27 06:01:28;;;;;;;;;;;;;;;7.93;100.00;98355.22;5095750;28;19959;-77
2021/04/27 06:03:54;;;;;;;;;;;;;;;7.90;100.00;98350.50;5068080;28;20367;-77
2021/04/27 06:06:21;;;;;;;;;;;;;;;7.97;100.00;98352.34;5087630;28;19928;-77
2021/04/27 06:08:48;;;;;;;;;;;;;;;7.97;100.00;98355.13;5079461;28;19924;-77
2021/04/27 06:11:15;;;;;;;;;;;;;;;8.01;100.00;98342.75;5060421;28;20036;-78
2021/04/27 06:13:42;;;;;;;;;;;;;;;8.03;100.00;98347.88;5080875;28;20567;-77
2021/04/27 06:16:09;;;;;;;;;;;;;;;8.13;100.00;98344.94;5077827;28;20315;-78
2021/04/27 06:18:35;;;;;;;;;;;;;;;8.13;100.00;98338.59;5080852;28;20337;-77
2021/04/27 06:21:02;;;;;;;;;;;;;;;8.34;100.00;98350.16;5059871;28;19924;-77
2021/04/27 06:23:29;;;;;;;;;;;;;;;8.46;100.00;98352.31;5080932;28;20275;-77
2021/04/27 06:25:55;;;;;;;;;;;;;;;8.41;100.00;98350.00;5077750;28;19928;-77
2021/04/27 06:28:22;;;;;;;;;;;;;;;8.34;100.00;98352.94;5078881;28;19969;-78
2021/04/27 06:30:48;;;;;;;;;;;;;;;8.55;100.00;98352.53;5075954;28;20323;-77
2021/04/27 06:33:16;;;;;;;;;;;;;;;8.34;100.00;98350.16;5073108;28;19924;-78
2021/04/27 06:35:43;;;;;;;;;;;;;;;8.61;100.00;98353.63;5081297;28;20371;-77
2021/04/27 06:38:15;;;;;;;;;;;;;;;8.82;100.00;98347.63;5062990;28;20318;-77
2021/04/27 06:40:42;;;;;;;;;;;;;;;9.08;100.00;98346.69;5076813;28;19924;-77
2021/04/27 06:43:08;;;;;;;;;;;;;;;9.38;100.00;98342.03;5046113;28;20006;-76
2021/04/27 06:45:35;;;;;;;;;;;;;;;9.10;100.00;98343.47;5051954;28;20466;-76
2021/04/27 06:48:04;;;;;;;;;;;;;;;9.65;100.00;98337.03;5061029;28;19924;-76
2021/04/27 06:50:30;;;;;;;;;;;;;;;10.03;100.00;98330.47;5078754;28;19928;-78
2021/04/27 06:52:57;;;;;;;;;;;;;;;10.13;100.00;98337.06;5060686;28;19924;-75
2021/04/27 06:55:26;;;;;;;;;;;;;;;10.19;100.00;98324.13;5061522;28;19948;-76
2021/04/27 06:57:54;;;;;;;;;;;;;;;10.28;100.00;98329.88;5056946;28;20377;-78
2021/04/27 07:00:21;;;;;;;;;;;;;;;10.99;100.00;98321.09;5073523;28;20429;-76
2021/04/27 07:02:47;;;;;;;;;;;;;;;11.90;100.00;98323.84;5072812;28;19928;-76
2021/04/27 07:05:15;;;;;;;;;;;;;;;12.59;100.00;98314.25;5041587;28;20025;-76
2021/04/27 07:07:41;;;;;;;;;;;;;;;12.75;100.00;98310.50;5055688;28;19931;-76
2021/04/27 07:10:08;;;;;;;;;;;;;;;13.12;100.00;98300.31;5072897;28;20389;-76
2021/04/27 07:12:37;;;;;;;;;;;;;;;14.09;100.00;98300.38;5088711;28;19924;-76
2021/04/27 07:15:04;;;;;;;;;;;;;;;14.43;100.00;98286.13;5073042;28;19931;-76
2021/04/27 07:17:31;;;;;;;;;;;;;;;15.05;100.00;98287.31;5072297;28;19966;-77
2021/04/27 07:19:57;;;;;;;;;;;;;;;16.03;100.00;98279.75;5054428;28;19924;-76
2021/04/27 07:22:26;;;;;;;;;;;;;;;15.68;100.00;98281.50;5074524;28;19928;-76
2021/04/27 07:24:54;;;;;;;;;;;;;;;16.70;100.00;98287.59;5075277;28;19924;-76
2021/04/27 07:27:20;;;;;;;;;;;;;;;17.74;100.00;98277.41;5074387;28;19928;-76
2021/04/27 07:29:47;;;;;;;;;;;;;;;17.11;100.00;98274.50;5084756;28;19925;-76
2021/04/27 07:32:14;;;;;;;;;;;;;;;17.84;100.00;98270.34;5045249;28;19928;-80
2021/04/27 07:34:41;;;;;;;;;;;;;;;16.48;100.00;98256.13;5070441;28;20030;-79
2021/04/27 07:37:08;;;;;;;;;;;;;;;14.48;100.00;98271.41;5073002;28;20331;-78
2021/04/27 07:39:35;;;;;;;;;;;;;;;13.12;100.00;98283.47;5069387;28;20493;-76
2021/04/27 07:42:02;;;;;;;;;;;;;;;11.86;100.00;98295.19;5071645;28;19943;-78
2021/04/27 07:44:29;;;;;;;;;;;;;;;11.42;100.00;98298.97;5071291;28;19925;-79
2021/04/27 07:46:55;;;;;;;;;;;;;;;11.01;100.00;98301.09;5074318;28;20371;-77
2021/04/27 07:49:22;;;;;;;;;;;;;;;10.77;100.00;98294.97;5074817;28;19990;-79
2021/04/27 07:51:48;;;;;;;;;;;;;;;10.73;100.00;98294.31;5065488;28;19924;-79
2021/04/27 07:54:15;;;;;;;;;;;;;;;10.66;100.00;98297.31;5081165;28;20035;-77
2021/04/27 07:56:42;;;;;;;;;;;;;;;10.57;100.00;98300.72;5080377;28;20280;-77
2021/04/27 07:59:08;;;;;;;;;;;;;;;10.58;100.00;98296.72;5085344;28;20015;-77
2021/04/27 08:01:35;;;;;;;;;;;;;;;10.61;100.00;98295.06;5091256;28;20287;-78
2021/04/27 08:04:02;;;;;;;;;;;;;;;10.78;100.00;98300.13;5075599;28;20014;-78
2021/04/27 08:06:29;;;;;;;;;;;;;;;10.81;100.00;98290.84;5075771;28;19931;-78
2021/04/27 08:08:57;;;;;;;;;;;;;;;10.86;100.00;98283.94;5075985;28;20015;-78
2021/04/27 08:11:23;;;;;;;;;;;;;;;10.49;100.00;98287.41;5091144;28;19924;-80
2021/04/27 08:13:50;;;;;;;;;;;;;;;10.30;100.00;98288.34;5087106;28;19924;-80
2021/04/27 08:16:16;;;;;;;;;;;;;;;10.12;100.00;98285.22;5089674;28;19924;-80
2021/04/27 08:18:43;;;;;;;;;;;;;;;10.30;100.00;98291.91;5104650;28;19924;-80
2021/04/27 08:21:11;;;;;;;;;;;;;;;10.40;100.00;98278.88;5087974;28;19924;-80
2021/04/27 08:23:38;;;;;;;;;;;;;;;10.74;100.00;98281.88;5072147;28;19924;-80
2021/04/27 08:26:05;;;;;;;;;;;;;;;10.98;100.00;98274.78;5093132;28;19932;-80
2021/04/27 08:28:32;;;;;;;;;;;;;;;11.51;100.00;98273.91;5091033;28;19924;-80
2021/04/27 08:30:59;;;;;;;;;;;;;;;12.03;100.00;98274.22;5076716;28;19924;-78
2021/04/27 08:33:27;;;;;;;;;;;;;;;12.27;100.00;98269.78;5076023;28;19935;-80
2021/04/27 08:35:53;;;;;;;;;;;;;;;11.95;100.00;98270.09;5075377;28;19931;-80
2021/04/27 08:38:20;;;;;;;;;;;;;;;11.43;100.00;98272.59;5075404;28;19931;-80
2021/04/27 08:40:47;;;;;;;;;;;;;;;11.43;100.00;98267.00;5074668;28;19924;-79
2021/04/27 08:43:14;;;;;;;;;;;;;;;11.54;100.00;98273.03;5073848;28;19935;-79
2021/04/27 08:45:41;;;;;;;;;;;;;;;11.43;100.00;98278.19;5068287;28;20415;-77
2021/04/27 08:48:09;;;;;;;;;;;;;;;11.12;100.00;98279.19;5058815;28;19925;-77
2021/04/27 08:51:00;;;;;;;;;;;;;;;10.94;100.00;98274.13;5075266;28;19928;-77
2021/04/27 08:53:27;;;;;;;;;;;;;;;10.82;100.00;98288.84;5057509;28;19924;-79
2021/04/27 08:55:53;;;;;;;;;;;;;;;10.95;100.00;98278.47;5075472;28;19924;-77
2021/04/27 08:58:20;;;;;;;;;;;;;;;11.26;100.00;98279.53;5075334;28;19924;-77
2021/04/27 09:00:46;;;;;;;;;;;;;;;11.29;100.00;98278.63;5091070;28;19955;-77
2021/04/27 09:03:13;;;;;;;;;;;;;;;11.17;100.00;98279.41;5075216;28;19928;-77
2021/04/27 09:05:41;;;;;;;;;;;;;;;11.38;100.00;98287.13;5075188;28;19928;-77
2021/04/27 09:08:37;;;;;;;;;;;;;;;11.30;100.00;98280.19;5075260;28;19924;-77
2021/04/27 09:11:23;;;;;;;;;;;;;;;11.35;100.00;98288.03;5075262;28;19924;-77
2021/04/27 09:14:19;;;;;;;;;;;;;;;11.17;100.00;98287.00;5075121;28;20515;-77
2021/04/27 09:16:56;;;;;;;;;;;;;;;9.83;100.00;98301.13;5066471;28;19928;-79
2021/04/27 09:19:29;;;;;;;;;;;;;;;9.43;100.00;98306.06;5057309;28;19925;-79
2021/04/27 09:22:03;;;;;;;;;;;;;;;9.19;100.00;98316.56;5074999;28;19982;-79
2021/04/27 09:24:32;;;;;;;;;;;;;;;9.31;100.00;98303.16;5075115;28;20605;-79
2021/04/27 09:26:58;;;;;;;;;;;;;;;9.45;100.00;98302.84;5074730;28;19931;-79
2021/04/27 09:29:29;;;;;;;;;;;;;;;9.37;100.00;98302.22;5074816;28;19955;-79
2021/04/27 09:31:56;;;;;;;;;;;;;;;9.31;100.00;98303.97;5090526;28;19935;-77
2021/04/27 09:34:24;;;;;;;;;;;;;;;9.38;100.00;98303.78;5074304;28;19931;-77
2021/04/27 09:36:58;;;;;;;;;;;;;;;9.38;100.00;98298.22;5074872;28;19924;-77
2021/04/27 09:39:43;;;;;;;;;;;;;;;9.12;100.00;98300.00;5074736;28;19924;-77
2021/04/27 09:42:17;;;;;;;;;;;;;;;8.73;100.00;98302.03;5074594;28;20440;-77
2021/04/27 09:44:51;;;;;;;;;;;;;;;9.02;100.00;98303.81;5090102;28;20031;-78
2021/04/27 09:47:17;;;;;;;;;;;;;;;8.61;100.00;98303.50;5090109;28;19925;-77
2021/04/27 09:49:55;;;;;;;;;;;;;;;8.50;100.00;98310.47;5074346;28;19978;-77
2021/04/27 09:52:22;;;;;;;;;;;;;;;8.70;100.00;98309.28;5073591;28;19947;-77
2021/04/27 09:55:03;;;;;;;;;;;;;;;8.98;100.00;98310.69;5074186;28;19931;-77
2021/04/27 09:57:34;;;;;;;;;;;;;;;9.25;100.00;98296.53;5074575;28;20102;-76
2021/04/27 10:00:19;;;;;;;;;;;;;;;9.71;100.00;98294.22;5074392;28;19930;-76
2021/04/27 10:02:45;;;;;;;;;;;;;;;9.94;100.00;98294.03;5090060;28;19958;-77
2021/04/27 10:05:12;;;;;;;;;;;;;;;10.10;100.00;98284.91;5074030;28;19930;-77
2021/04/27 10:07:39;;;;;;;;;;;;;;;10.43;100.00;98286.38;5056410;28;19925;-77
2021/04/27 10:10:07;;;;;;;;;;;;;;;10.56;100.00;98276.81;5074223;28;19932;-77
2021/04/27 10:12:35;;;;;;;;;;;;;;;10.73;100.00;98280.34;5056284;28;20283;-77
2021/04/27 10:15:01;;;;;;;;;;;;;;;11.11;100.00;98272.81;5056201;28;20393;-77
2021/04/27 10:17:28;;;;;;;;;;;;;;;11.16;100.00;98269.47;5073961;28;19950;-77
2021/04/27 10:19:55;;;;;;;;;;;;;;;11.41;100.00;98265.88;5074249;28;19925;-77
2021/04/27 10:22:21;;;;;;;;;;;;;;;11.50;100.00;98263.97;5073911;28;19931;-77
2021/04/27 10:24:48;;;;;;;;;;;;;;;11.55;100.00;98263.41;5073961;28;19924;-78
2021/04/27 10:27:15;;;;;;;;;;;;;;;11.43;100.00;98258.63;5073766;28;19931;-77
2021/04/27 10:29:41;;;;;;;;;;;;;;;11.40;100.00;98255.94;5073868;28;19931;-77
2021/04/27 10:32:19;;;;;;;;;;;;;;;11.58;100.00;98261.72;5073809;28;20025;-77
2021/04/27 10:34:58;;;;;;;;;;;;;;;11.68;100.00;98255.03;5073705;28;19930;-77
2021/04/27 10:37:25;;;;;;;;;;;;;;;11.89;100.00;98259.94;5089713;28;19925;-77
2021/04/27 10:39:52;;;;;;;;;;;;;;;12.09;100.00;98246.41;5073692;28;19931;-77
2021/04/27 10:42:20;;;;;;;;;;;;;;;12.23;100.00;98246.72;5073671;28;19925;-77
2021/04/27 10:44:59;;;;;;;;;;;;;;;12.17;100.00;98242.13;5073548;28;19963;-78
2021/04/27 10:47:26;;;;;;;;;;;;;;;12.45;100.00;98235.50;5066494;28;19931;-77
2021/04/27 10:49:54;;;;;;;;;;;;;;;12.64;100.00;98226.81;5072422;28;19978;-77
2021/04/27 10:52:25;;;;;;;;;;;;;;;12.69;100.00;98234.59;5072592;28;19924;-77
2021/04/27 10:54:52;;;;;;;;;;;;;;;12.70;100.00;98227.78;5088686;28;19928;-77
2021/04/27 10:57:24;;;;;;;;;;;;;;;12.57;100.00;98232.66;5055758;28;20054;-78
2021/04/27 10:59:52;;;;;;;;;;;;;;;12.54;100.00;98222.34;5073404;28;19928;-78
2021/04/27 11:02:23;;;;;;;;;;;;;;;12.81;100.00;98229.38;5073381;28;19924;-77
2021/04/27 11:04:54;;;;;;;;;;;;;;;12.88;100.00;98223.50;5073078;28;19924;-77
2021/04/27 11:07:21;;;;;;;;;;;;;;;12.89;100.00;98222.28;5073619;28;20011;-77
2021/04/27 11:10:00;;;;;;;;;;;;;;;12.90;100.00;98221.03;5073538;28;19925;-77
2021/04/27 11:12:55;;;;;;;;;;;;;;;12.41;100.00;98224.44;5072810;28;20026;-77
2021/04/27 11:15:24;;;;;;;;;;;;;;;12.49;100.00;98228.56;5071970;28;20296;-77
2021/04/27 11:18:19;;;;;;;;;;;;;;;12.29;100.00;98219.69;5072833;28;19925;-77
2021/04/27 11:20:51;;;;;;;;;;;;;;;12.24;100.00;98220.25;5088089;28;19939;-77
2021/04/27 11:23:34;;;;;;;;;;;;;;;12.19;100.00;98222.88;5072636;28;19930;-76
2021/04/27 11:26:01;;;;;;;;;;;;;;;12.23;100.00;98220.72;5073016;28;20367;-77
2021/04/27 11:28:50;;;;;;;;;;;;;;;12.27;100.00;98219.34;5073389;28;19947;-77
2021/04/27 11:31:17;;;;;;;;;;;;;;;12.33;100.00;98211.94;5088423;28;19939;-77
2021/04/27 11:33:44;;;;;;;;;;;;;;;11.96;100.00;98214.88;5073233;28;19925;-77
2021/04/27 11:36:10;;;;;;;;;;;;;;;11.45;100.00;98222.56;5072914;28;19929;-77
2021/04/27 11:38:37;;;;;;;;;;;;;;;11.31;100.00;98219.47;5073158;28;19928;-77
2021/04/27 11:41:03;;;;;;;;;;;;;;;11.15;100.00;98222.38;5072906;28;20377;-77
2021/04/27 11:43:30;;;;;;;;;;;;;;;11.07;100.00;98227.41;5073133;28;19928;-77
2021/04/27 11:45:57;;;;;;;;;;;;;;;11.04;100.00;98221.94;5072926;28;19970;-76
2021/04/27 11:48:23;;;;;;;;;;;;;;;11.15;100.00;98225.94;5073041;28;20329;-77
2021/04/27 11:51:14;;;;;;;;;;;;;;;11.35;100.00;98226.50;5054695;28;20300;-76
2021/04/27 11:53:41;;;;;;;;;;;;;;;11.47;100.00;98210.94;5087487;28;19925;-76
2021/04/27 11:56:08;;;;;;;;;;;;;;;11.72;100.00;98216.53;5072090;28;20302;-76
2021/04/27 11:58:40;;;;;;;;;;;;;;;12.04;100.00;98210.63;5054147;28;20375;-77
2021/04/27 12:01:07;;;;;;;;;;;;;;;12.34;100.00;98210.69;5080236;28;20082;-77
2021/04/27 12:03:40;;;;;;;;;;;;;;;12.33;100.00;98203.53;5085853;28;19928;-76
2021/04/27 12:06:12;;;;;;;;;;;;;;;12.46;100.00;98204.22;5079336;28;20426;-76
2021/04/27 12:08:39;;;;;;;;;;;;;;;12.77;100.00;98200.72;5085874;28;19928;-76
2021/04/27 12:11:11;;;;;;;;;;;;;;;12.73;100.00;98201.63;5088793;28;19928;-76
2021/04/27 12:13:49;;;;;;;;;;;;;;;12.78;100.00;98198.22;5086785;28;19924;-77
2021/04/27 12:16:17;;;;;;;;;;;;;;;12.66;100.00;98196.28;5090895;28;20081;-76
2021/04/27 12:18:54;;;;;;;;;;;;;;;12.51;100.00;98189.66;5081435;28;19924;-77
2021/04/27 12:21:39;;;;;;;;;;;;;;;12.38;100.00;98191.75;5058031;28;19924;-76
2021/04/27 12:24:10;;;;;;;;;;;;;;;12.58;100.00;98178.19;5075837;28;19928;-75
2021/04/27 12:26:38;;;;;;;;;;;;;;;12.85;100.00;98185.16;5094183;28;20363;-75
2021/04/27 12:29:04;;;;;;;;;;;;;;;13.10;100.00;98179.41;5079952;28;20023;-74
2021/04/27 12:31:32;;;;;;;;;;;;;;;12.84;100.00;98178.78;5091784;28;19971;-75
2021/04/27 12:34:01;;;;;;;;;;;;;;;12.68;100.00;98174.19;5076216;28;19932;-75
2021/04/27 12:36:33;;;;;;;;;;;;;;;12.42;100.00;98172.78;5075970;28;19924;-77
2021/04/27 12:39:00;;;;;;;;;;;;;;;12.33;100.00;98174.72;5076094;28;20509;-74
2021/04/27 12:41:40;;;;;;;;;;;;;;;12.30;100.00;98179.22;5075936;28;20379;-74
2021/04/27 12:44:25;;;;;;;;;;;;;;;12.20;100.00;98180.41;5075637;28;19934;-74
2021/04/27 12:46:51;;;;;;;;;;;;;;;12.10;100.00;98175.97;5075857;28;19924;-75
2021/04/27 12:49:32;;;;;;;;;;;;;;;11.97;100.00;98178.03;5058242;28;19932;-74
2021/04/27 12:52:10;;;;;;;;;;;;;;;12.10;100.00;98175.19;5075630;28;19960;-74
2021/04/27 12:54:39;;;;;;;;;;;;;;;12.15;100.00;98175.38;5075685;28;19932;-75
2021/04/27 12:57:08;;;;;;;;;;;;;;;12.24;100.00;98181.06;5075408;28;19928;-75
2021/04/27 12:59:35;;;;;;;;;;;;;;;12.19;100.00;98178.06;5057858;28;19932;-75